Time,TemperatureF,DewpointF,PressureIn,WindDirection,WindDirectionDegrees,WindSpeedMPH,WindSpeedGustMPH,Humidity,HourlyPrecipIn,Conditions,Clouds,dailyrainin,SolarRadiationWatts/m^2,SoftwareType,DateUTC
2013-06-14 00:22:00,69.0,69.0,-100.00,North,354,3.0,8.0,100,0.03,,,0.21,0.000000,,2013-06-14 10:22:00,
2013-06-14 00:34:00,69.0,69.0,-100.00,North,354,3.0,8.0,100,0.03,,,0.21,0.000000,,2013-06-14 10:34:00,
2013-06-14 00:43:00,69.0,69.0,-100.00,North,354,3.0,8.0,100,0.03,,,0.21,0.000000,,2013-06-14 10:43:00,
2013-06-14 00:52:00,69.0,69.0,-100.00,North,354,3.0,8.0,100,0.03,,,0.21,0.000000,,2013-06-14 10:52:00,
2013-06-14 01:22:00,67.0,67.0,-100.00,SE,128,1.0,9.0,100,0.06,,,0.27,0.000000,,2013-06-14 11:22:00,
2013-06-14 01:32:00,67.0,67.0,-100.00,SE,128,1.0,9.0,100,0.06,,,0.27,0.000000,,2013-06-14 11:32:00,
2013-06-14 01:43:00,67.0,67.0,-100.00,SE,128,1.0,9.0,100,0.06,,,0.27,0.000000,,2013-06-14 11:43:00,
2013-06-14 01:52:00,67.0,67.0,-100.00,SE,128,1.0,9.0,100,0.06,,,0.27,0.000000,,2013-06-14 11:52:00,
2013-06-14 02:32:00,67.0,67.0,-100.00,SSW,194,1.0,6.0,100,0.02,,,0.29,0.000000,,2013-06-14 12:32:00,
2013-06-14 02:43:00,67.0,67.0,-100.00,SSW,194,1.0,6.0,100,0.02,,,0.29,0.000000,,2013-06-14 12:43:00,
2013-06-14 02:52:00,67.0,67.0,-100.00,SSW,194,1.0,6.0,100,0.02,,,0.29,0.000000,,2013-06-14 12:52:00,
2013-06-14 03:22:00,67.0,67.0,-100.00,NNE,15,3.0,9.0,100,0.01,,,0.30,0.000000,,2013-06-14 13:22:00,
2013-06-14 03:33:00,67.0,67.0,-100.00,NNE,15,3.0,9.0,100,0.01,,,0.30,0.000000,,2013-06-14 13:33:00,
2013-06-14 03:43:00,67.0,67.0,-100.00,NNE,15,3.0,9.0,100,0.01,,,0.30,0.000000,,2013-06-14 13:43:00,
2013-06-14 03:52:00,67.0,67.0,-100.00,NNE,15,3.0,9.0,100,0.01,,,0.30,0.000000,,2013-06-14 13:52:00,
2013-06-14 04:22:00,67.0,67.0,-100.00,NNE,20,2.0,7.0,100,0.02,,,0.32,0.000000,,2013-06-14 14:22:00,
2013-06-14 04:34:00,67.0,67.0,-100.00,NNE,20,2.0,7.0,100,0.02,,,0.32,0.000000,,2013-06-14 14:34:00,
2013-06-14 04:43:00,67.0,67.0,-100.00,NNE,20,2.0,7.0,100,0.02,,,0.32,0.000000,,2013-06-14 14:43:00,
2013-06-14 04:52:00,67.0,67.0,-100.00,NNE,20,2.0,7.0,100,0.02,,,0.32,0.000000,,2013-06-14 14:52:00,
2013-06-14 05:23:00,67.0,67.0,-100.00,NW,326,3.0,7.0,100,0.01,,,0.32,0.000000,,2013-06-14 15:23:00,
2013-06-14 05:33:00,67.0,67.0,-100.00,NW,326,3.0,7.0,100,0.01,,,0.32,0.000000,,2013-06-14 15:33:00,
2013-06-14 05:43:00,67.0,67.0,-100.00,NW,326,3.0,7.0,100,0.01,,,0.32,0.000000,,2013-06-14 15:43:00,
2013-06-14 05:52:00,67.0,67.0,-100.00,NW,326,3.0,7.0,100,0.01,,,0.32,0.000000,,2013-06-14 15:52:00,
2013-06-14 06:22:00,69.0,69.0,-100.00,WNW,301,4.0,9.0,100,0.00,,,0.32,0.000000,,2013-06-14 16:22:00,
2013-06-14 06:32:00,69.0,69.0,-100.00,WNW,301,4.0,9.0,100,0.00,,,0.32,0.000000,,2013-06-14 16:32:00,
2013-06-14 06:43:00,69.0,69.0,-100.00,WNW,301,4.0,9.0,100,0.00,,,0.32,0.000000,,2013-06-14 16:43:00,
2013-06-14 06:52:00,69.0,69.0,-100.00,WNW,301,4.0,9.0,100,0.00,,,0.32,0.000000,,2013-06-14 16:52:00,
2013-06-14 07:22:00,70.0,70.0,-100.00,NW,310,3.0,8.0,100,0.01,,,0.33,28.000000,,2013-06-14 17:22:00,
2013-06-14 07:34:00,70.0,70.0,-100.00,NW,310,3.0,8.0,100,0.01,,,0.33,28.000000,,2013-06-14 17:34:00,
2013-06-14 07:43:00,70.0,70.0,-100.00,NW,310,3.0,8.0,100,0.01,,,0.33,28.000000,,2013-06-14 17:43:00,
2013-06-14 07:53:00,70.0,70.0,-100.00,NW,310,3.0,8.0,100,0.01,,,0.33,28.000000,,2013-06-14 17:53:00,
2013-06-14 08:22:00,73.0,72.0,-100.00,NNE,29,4.0,13.0,96,0.00,,,0.33,86.000000,,2013-06-14 18:22:00,
2013-06-14 08:32:00,73.0,72.0,-100.00,NNE,29,4.0,13.0,96,0.00,,,0.33,86.000000,,2013-06-14 18:32:00,
2013-06-14 08:42:00,73.0,72.0,-100.00,NNE,29,4.0,13.0,96,0.00,,,0.33,86.000000,,2013-06-14 18:42:00,
2013-06-14 08:52:00,73.0,72.0,-100.00,NNE,29,4.0,13.0,96,0.00,,,0.33,86.000000,,2013-06-14 18:52:00,
2013-06-14 09:32:00,75.0,70.0,-100.00,ENE,68,7.0,13.0,85,0.00,,,0.33,186.000000,,2013-06-14 19:32:00,
2013-06-14 09:43:00,75.0,70.0,-100.00,ENE,68,7.0,13.0,85,0.00,,,0.33,186.000000,,2013-06-14 19:43:00,
2013-06-14 09:53:00,75.0,70.0,-100.00,ENE,68,7.0,13.0,85,0.00,,,0.33,186.000000,,2013-06-14 19:53:00,
2013-06-14 10:22:00,76.0,71.0,-100.00,East,91,5.0,21.0,84,0.00,,,0.33,165.000000,,2013-06-14 20:22:00,
2013-06-14 10:33:00,76.0,71.0,-100.00,East,91,5.0,21.0,84,0.00,,,0.33,165.000000,,2013-06-14 20:33:00,
2013-06-14 10:43:00,76.0,71.0,-100.00,East,91,5.0,21.0,84,0.00,,,0.33,165.000000,,2013-06-14 20:43:00,
2013-06-14 10:53:00,76.0,71.0,-100.00,East,91,5.0,21.0,84,0.00,,,0.33,165.000000,,2013-06-14 20:53:00,
2013-06-14 11:22:00,75.0,69.0,-100.00,ENE,60,10.0,22.0,83,0.00,,,0.33,192.000000,,2013-06-14 21:22:00,
2013-06-14 11:34:00,75.0,69.0,-100.00,ENE,60,10.0,22.0,83,0.00,,,0.33,192.000000,,2013-06-14 21:34:00,
2013-06-14 11:42:00,75.0,69.0,-100.00,ENE,60,10.0,22.0,83,0.00,,,0.33,192.000000,,2013-06-14 21:42:00,
2013-06-14 11:52:00,75.0,69.0,-100.00,ENE,60,10.0,22.0,83,0.00,,,0.33,192.000000,,2013-06-14 21:52:00,
2013-06-14 12:22:00,77.0,71.0,-100.00,ENE,59,9.0,19.0,81,0.00,,,0.33,166.000000,,2013-06-14 22:22:00,
2013-06-14 12:33:00,77.0,71.0,-100.00,ENE,59,9.0,19.0,81,0.00,,,0.33,166.000000,,2013-06-14 22:33:00,
2013-06-14 12:43:00,77.0,71.0,-100.00,ENE,59,9.0,19.0,81,0.00,,,0.33,166.000000,,2013-06-14 22:43:00,
2013-06-14 12:52:00,77.0,71.0,-100.00,ENE,59,9.0,19.0,81,0.00,,,0.33,166.000000,,2013-06-14 22:52:00,
2013-06-14 13:33:00,74.0,71.0,-100.00,ENE,66,9.0,24.0,91,0.01,,,0.33,217.000000,,2013-06-14 23:33:00,
2013-06-14 13:43:00,74.0,71.0,-100.00,ENE,66,9.0,24.0,91,0.01,,,0.33,217.000000,,2013-06-14 23:43:00,
2013-06-14 13:52:00,74.0,71.0,-100.00,ENE,66,9.0,24.0,91,0.01,,,0.33,217.000000,,2013-06-14 23:52:00,
2013-06-14 14:22:00,77.0,71.0,-100.00,ENE,74,6.0,17.0,81,0.00,,,0.33,189.000000,,2013-06-15 00:22:00,
2013-06-14 14:33:00,77.0,71.0,-100.00,ENE,74,6.0,17.0,81,0.00,,,0.33,189.000000,,2013-06-15 00:33:00,
2013-06-14 14:43:00,77.0,71.0,-100.00,ENE,74,6.0,17.0,81,0.00,,,0.33,189.000000,,2013-06-15 00:43:00,
2013-06-14 14:52:00,77.0,71.0,-100.00,ENE,74,6.0,17.0,81,0.00,,,0.33,189.000000,,2013-06-15 00:52:00,
2013-06-14 15:22:00,78.0,71.0,-100.00,ENE,65,7.0,18.0,78,0.00,,,0.33,161.000000,,2013-06-15 01:22:00,
2013-06-14 15:33:00,78.0,71.0,-100.00,ENE,65,7.0,18.0,78,0.00,,,0.33,161.000000,,2013-06-15 01:33:00,
2013-06-14 15:43:00,78.0,71.0,-100.00,ENE,65,7.0,18.0,78,0.00,,,0.33,161.000000,,2013-06-15 01:43:00,
2013-06-14 15:54:00,78.0,71.0,-100.00,ENE,65,7.0,18.0,78,0.00,,,0.33,161.000000,,2013-06-15 01:54:00,
2013-06-14 16:33:00,77.0,69.0,-100.00,East,83,8.0,18.0,76,0.00,,,0.33,179.000000,,2013-06-15 02:33:00,
2013-06-14 16:43:00,77.0,69.0,-100.00,East,83,8.0,18.0,76,0.00,,,0.33,179.000000,,2013-06-15 02:43:00,
2013-06-14 16:53:00,77.0,69.0,-100.00,East,83,8.0,18.0,76,0.00,,,0.33,179.000000,,2013-06-15 02:53:00,
2013-06-14 17:23:00,77.0,70.0,-100.00,SSE,155,7.0,16.0,78,0.00,,,0.33,181.000000,,2013-06-15 03:23:00,
2013-06-14 17:32:00,77.0,70.0,-100.00,SSE,155,7.0,16.0,78,0.00,,,0.33,181.000000,,2013-06-15 03:32:00,
2013-06-14 17:43:00,77.0,70.0,-100.00,SSE,155,7.0,16.0,78,0.00,,,0.33,181.000000,,2013-06-15 03:43:00,
2013-06-14 17:52:00,77.0,70.0,-100.00,SSE,155,7.0,16.0,78,0.00,,,0.33,181.000000,,2013-06-15 03:52:00,
2013-06-14 18:22:00,76.0,69.0,-100.00,ENE,71,5.0,14.0,80,0.00,,,0.33,89.000000,,2013-06-15 04:22:00,
2013-06-14 18:34:00,76.0,69.0,-100.00,ENE,71,5.0,14.0,80,0.00,,,0.33,89.000000,,2013-06-15 04:34:00,
2013-06-14 18:43:00,76.0,69.0,-100.00,ENE,71,5.0,14.0,80,0.00,,,0.33,89.000000,,2013-06-15 04:43:00,
2013-06-14 18:53:00,76.0,69.0,-100.00,ENE,71,5.0,14.0,80,0.00,,,0.33,89.000000,,2013-06-15 04:53:00,
2013-06-14 19:22:00,72.0,68.0,-100.00,NE,44,6.0,15.0,87,0.00,,,0.33,30.000000,,2013-06-15 05:22:00,
2013-06-14 19:34:00,72.0,68.0,-100.00,NE,44,6.0,15.0,87,0.00,,,0.33,30.000000,,2013-06-15 05:34:00,
2013-06-14 19:42:00,72.0,68.0,-100.00,NE,44,6.0,15.0,87,0.00,,,0.33,30.000000,,2013-06-15 05:42:00,
2013-06-14 19:52:00,72.0,68.0,-100.00,NE,44,6.0,15.0,87,0.00,,,0.33,30.000000,,2013-06-15 05:52:00,
2013-06-14 20:24:00,71.0,70.0,-100.00,ESE,102,2.0,11.0,96,0.00,,,0.32,1.000000,,2013-06-15 06:24:00,
2013-06-14 20:33:00,71.0,70.0,-100.00,ESE,102,2.0,11.0,96,0.00,,,0.32,1.000000,,2013-06-15 06:33:00,
2013-06-14 20:43:00,71.0,70.0,-100.00,ESE,102,2.0,11.0,96,0.00,,,0.32,1.000000,,2013-06-15 06:43:00,
2013-06-14 20:53:00,71.0,70.0,-100.00,ESE,102,2.0,11.0,96,0.00,,,0.32,1.000000,,2013-06-15 06:53:00,
2013-06-14 21:23:00,66.0,66.0,-100.00,WSW,255,4.0,7.0,100,0.00,,,0.29,0.000000,,2013-06-15 07:23:00,
2013-06-14 21:33:00,66.0,66.0,-100.00,WSW,255,4.0,7.0,100,0.00,,,0.29,0.000000,,2013-06-15 07:33:00,
2013-06-14 21:43:00,66.0,66.0,-100.00,WSW,255,4.0,7.0,100,0.00,,,0.29,0.000000,,2013-06-15 07:43:00,
2013-06-14 21:53:00,66.0,66.0,-100.00,WSW,255,4.0,7.0,100,0.00,,,0.29,0.000000,,2013-06-15 07:53:00,
2013-06-14 22:22:00,66.0,66.0,-100.00,SW,236,2.0,6.0,100,0.00,,,0.27,0.000000,,2013-06-15 08:22:00,
2013-06-14 22:33:00,66.0,66.0,-100.00,SW,236,2.0,6.0,100,0.00,,,0.27,0.000000,,2013-06-15 08:33:00,
2013-06-14 22:42:00,66.0,66.0,-100.00,SW,236,2.0,6.0,100,0.00,,,0.27,0.000000,,2013-06-15 08:42:00,
2013-06-14 22:53:00,66.0,66.0,-100.00,SW,236,2.0,6.0,100,0.00,,,0.27,0.000000,,2013-06-15 08:53:00,
2013-06-14 23:33:00,67.0,67.0,-100.00,NW,315,2.0,7.0,100,0.00,,,0.17,0.000000,,2013-06-15 09:33:00,
2013-06-14 23:43:00,67.0,67.0,-100.00,NW,315,2.0,7.0,100,0.00,,,0.17,0.000000,,2013-06-15 09:43:00,
2013-06-14 23:52:00,67.0,67.0,-100.00,NW,315,2.0,7.0,100,0.00,,,0.17,0.000000,,2013-06-15 09:52:00,